^^
Grace C. Lehan Memorial Weather Station Historical Data
Daily Summary for May 7, 2021 Units:  Both    English   Metric
Daily Weekly Monthly Yearly
  High: Low: Average:
Temperature: 95.2 °F /  35.1 °C 70 °F /  21.1 °C 82.5 °F /  28.1 °C
Dew Point: 76.4 °F /  24.7 °C 63.9 °F /  17.7 °C 70.5 °F /  21.4 °C
Humidity: 84% 47.5% 68%
Wind Speed: 3.5mph /  5.6km/h - 0.4mph /  0.6km/h
Wind Gust: 13mph /  20.9km/h - -
Wind- - SW
Pressure: 30.05 in /  1017.5 hPa 29.96 in /  1014.4 hPa -
Precipitation: 0.00 in /  0 mm    
 
 
Tabular Data for May 7, 2021
Time Temperature Dew Point Pressure Wind Wind Speed Wind Gust Humidity Rainfall Rate (Hourly) solar
00:04 75.6 °F /  24.2 °C 65.5 °F /  18.6 °C 30.01in /  1016.1hPa Calm     71% 0.00in /  0mm 0 W/m2
00:09 75.5 °F /  24.2 °C 65.4 °F /  18.6 °C 30.02in /  1016.5hPa Calm     71% 0.00in /  0mm 0 W/m2
00:14 75.3 °F /  24.1 °C 65.3 °F /  18.5 °C 30.02in /  1016.5hPa Calm     71% 0.00in /  0mm 0 W/m2
00:19 75.2 °F /  24 °C 65.3 °F /  18.5 °C 30.02in /  1016.5hPa Calm     71.4% 0.00in /  0mm 0 W/m2
00:24 75.1 °F /  23.9 °C 65.5 °F /  18.6 °C 30.02in /  1016.5hPa Calm     72% 0.00in /  0mm 0 W/m2
00:29 75 °F /  23.9 °C 65.3 °F /  18.5 °C 30.02in /  1016.5hPa Calm     72% 0.00in /  0mm 0 W/m2
00:34 74.8 °F /  23.8 °C 65.2 °F /  18.4 °C 30.02in /  1016.5hPa Calm     72% 0.00in /  0mm 0 W/m2
00:39 74.7 °F /  23.7 °C 65.1 °F /  18.4 °C 30.02in /  1016.5hPa Calm     72% 0.00in /  0mm 0 W/m2
00:44 74.6 °F /  23.7 °C 65 °F /  18.3 °C 30.01in /  1016.1hPa Calm     72% 0.00in /  0mm 0 W/m2
00:49 74.5 °F /  23.6 °C 64.9 °F /  18.3 °C 30.02in /  1016.5hPa Calm     72% 0.00in /  0mm 0 W/m2
00:54 74.4 °F /  23.6 °C 64.8 °F /  18.2 °C 30.02in /  1016.5hPa Calm     72% 0.00in /  0mm 0 W/m2
00:59 74.3 °F /  23.5 °C 65.1 °F /  18.4 °C 30.02in /  1016.5hPa Calm     73% 0.00in /  0mm 0 W/m2
01:04 74.1 °F /  23.4 °C 64.9 °F /  18.3 °C 30.02in /  1016.5hPa Calm     73% 0.00in /  0mm 0 W/m2
01:09 73.9 °F /  23.3 °C 64.7 °F /  18.2 °C 30.02in /  1016.5hPa Calm     73% 0.00in /  0mm 0 W/m2
01:14 73.7 °F /  23.2 °C 64.7 °F /  18.2 °C 30.02in /  1016.5hPa Calm     73.5% 0.00in /  0mm 0 W/m2
01:19 73.6 °F /  23.1 °C 64.8 °F /  18.2 °C 30.02in /  1016.5hPa Calm     74% 0.00in /  0mm 0 W/m2
01:24 73.5 °F /  23.1 °C 64.7 °F /  18.2 °C 30.02in /  1016.5hPa Calm     74% 0.00in /  0mm 0 W/m2
01:29 73.4 °F /  23 °C 64.6 °F /  18.1 °C 30.01in /  1016.1hPa Calm     74% 0.00in /  0mm 0 W/m2
01:34 73.2 °F /  22.9 °C 64.5 °F /  18.1 °C 30.02in /  1016.5hPa Calm     74% 0.00in /  0mm 0 W/m2
01:39 73.1 °F /  22.8 °C 64.3 °F /  17.9 °C 30.02in /  1016.5hPa Calm     74% 0.00in /  0mm 0 W/m2
01:44 73 °F /  22.8 °C 64.2 °F /  17.9 °C 30.02in /  1016.5hPa Calm     74% 0.00in /  0mm 0 W/m2
01:49 72.9 °F /  22.7 °C 64.1 °F /  17.8 °C 30.02in /  1016.5hPa Calm     74% 0.00in /  0mm 0 W/m2
01:54 72.8 °F /  22.7 °C 64 °F /  17.8 °C 30.01in /  1016.1hPa Calm     74.1% 0.00in /  0mm 0 W/m2
01:59 72.6 °F /  22.6 °C 64.3 °F /  17.9 °C 30.01in /  1016.1hPa Calm     75% 0.00in /  0mm 0 W/m2
02:04 72.5 °F /  22.5 °C 64.2 °F /  17.9 °C 30.01in /  1016.1hPa Calm     75% 0.00in /  0mm 0 W/m2
02:09 72.4 °F /  22.4 °C 64.1 °F /  17.8 °C 30.01in /  1016.1hPa Calm     75% 0.00in /  0mm 0 W/m2
02:14 72.4 °F /  22.4 °C 64 °F /  17.8 °C 30.01in /  1016.1hPa Calm     75% 0.00in /  0mm 0 W/m2
02:19 72.3 °F /  22.4 °C 63.9 °F /  17.7 °C 30.01in /  1016.1hPa Calm     75% 0.00in /  0mm 0 W/m2
02:24 72.2 °F /  22.3 °C 63.9 °F /  17.7 °C 30.01in /  1016.1hPa Calm     75.1% 0.00in /  0mm 0 W/m2
02:29 72.2 °F /  22.3 °C 64.2 °F /  17.9 °C 30.01in /  1016.1hPa Calm     76% 0.00in /  0mm 0 W/m2
02:34 72.1 °F /  22.3 °C 64.1 °F /  17.8 °C 30.01in /  1016.1hPa Calm     76% 0.00in /  0mm 0 W/m2
02:39 72 °F /  22.2 °C 64 °F /  17.8 °C 30.01in /  1016.1hPa Calm     76% 0.00in /  0mm 0 W/m2
02:44 71.9 °F /  22.2 °C 64.2 °F /  17.9 °C 30.01in /  1016.1hPa Calm     76.7% 0.00in /  0mm 0 W/m2
02:49 71.8 °F /  22.1 °C 64.2 °F /  17.9 °C 30.01in /  1016.1hPa Calm     77% 0.00in /  0mm 0 W/m2
02:54 71.7 °F /  22.1 °C 64.1 °F /  17.8 °C 30.01in /  1016.1hPa Calm     77% 0.00in /  0mm 0 W/m2
02:59 71.7 °F /  22.1 °C 64.1 °F /  17.8 °C 30.01in /  1016.1hPa Calm     77% 0.00in /  0mm 0 W/m2
03:04 71.7 °F /  22.1 °C 64.1 °F /  17.8 °C 30.01in /  1016.1hPa Calm     77% 0.00in /  0mm 0 W/m2
03:09 71.6 °F /  22 °C 64 °F /  17.8 °C 30.01in /  1016.1hPa Calm     77% 0.00in /  0mm 0 W/m2
03:14 71.5 °F /  21.9 °C 64 °F /  17.8 °C 30.01in /  1016.1hPa Calm     77% 0.00in /  0mm 0 W/m2
03:19 71.5 °F /  21.9 °C 63.9 °F /  17.7 °C 30.01in /  1016.1hPa Calm     77.2% 0.00in /  0mm 0 W/m2
03:24 71.3 °F /  21.8 °C 64.1 °F /  17.8 °C 30.01in /  1016.1hPa Calm     78% 0.00in /  0mm 0 W/m2
03:29 71.2 °F /  21.8 °C 64 °F /  17.8 °C 30.01in /  1016.1hPa Calm     78% 0.00in /  0mm 0 W/m2
03:34 71.1 °F /  21.7 °C 64.2 °F /  17.9 °C 30.01in /  1016.1hPa Calm     78.6% 0.00in /  0mm 0 W/m2
03:39 71.1 °F /  21.7 °C 64.3 °F /  17.9 °C 30.01in /  1016.1hPa Calm     79% 0.00in /  0mm 0 W/m2
03:44 71 °F /  21.7 °C 64.2 °F /  17.9 °C 30.01in /  1016.1hPa Calm     79% 0.00in /  0mm 0 W/m2
03:49 71 °F /  21.7 °C 64.2 °F /  17.9 °C 30.01in /  1016.1hPa Calm     79% 0.00in /  0mm 0 W/m2
03:54 71 °F /  21.7 °C 64.2 °F /  17.9 °C 30.01in /  1016.1hPa Calm     79% 0.00in /  0mm 0 W/m2
03:59 70.9 °F /  21.6 °C 64.1 °F /  17.8 °C 30.00in /  1015.8hPa Calm     79% 0.00in /  0mm 0 W/m2
04:04 70.8 °F /  21.6 °C 64 °F /  17.8 °C 30.00in /  1015.8hPa Calm     79% 0.00in /  0mm 0 W/m2
04:09 70.8 °F /  21.6 °C 64.1 °F /  17.8 °C 30.00in /  1015.8hPa Calm     79.4% 0.00in /  0mm 0 W/m2
04:14 70.7 °F /  21.5 °C 64.2 °F /  17.9 °C 30.00in /  1015.8hPa Calm     80% 0.00in /  0mm 0 W/m2
04:19 70.6 °F /  21.4 °C 64.2 °F /  17.9 °C 30.00in /  1015.8hPa Calm     80% 0.00in /  0mm 0 W/m2
04:24 70.5 °F /  21.4 °C 64.3 °F /  17.9 °C 30.00in /  1015.8hPa Calm     80.7% 0.00in /  0mm 0 W/m2
04:29 70.4 °F /  21.3 °C 64.3 °F /  17.9 °C 30.00in /  1015.8hPa Calm     81% 0.00in /  0mm 0 W/m2
04:34 70.4 °F /  21.3 °C 64.3 °F /  17.9 °C 30.00in /  1015.8hPa Calm     81% 0.00in /  0mm 0 W/m2
04:39 70.3 °F /  21.3 °C 64.2 °F /  17.9 °C 30.00in /  1015.8hPa Calm     81% 0.00in /  0mm 0 W/m2
04:44 70.3 °F /  21.3 °C 64.3 °F /  17.9 °C 30.00in /  1015.8hPa Calm     81.4% 0.00in /  0mm 0 W/m2
04:49 70.2 °F /  21.2 °C 64.4 °F /  18 °C 30.00in /  1015.8hPa Calm     82% 0.00in /  0mm 0 W/m2
04:54 70.2 °F /  21.2 °C 64.4 °F /  18 °C 30.01in /  1016.1hPa Calm     82% 0.00in /  0mm 0 W/m2
04:59 70.1 °F /  21.2 °C 64.4 °F /  18 °C 30.01in /  1016.1hPa Calm     82% 0.00in /  0mm 0 W/m2
05:04 70.2 °F /  21.2 °C 64.4 °F /  18 °C 30.01in /  1016.1hPa Calm     82% 0.00in /  0mm 0 W/m2
05:09 70.2 °F /  21.2 °C 64.4 °F /  18 °C 30.01in /  1016.1hPa Calm     82% 0.00in /  0mm 0 W/m2
05:14 70.2 °F /  21.2 °C 64.4 °F /  18 °C 30.01in /  1016.1hPa Calm     82% 0.00in /  0mm 0 W/m2
05:19 70.2 °F /  21.2 °C 64.4 °F /  18 °C 30.01in /  1016.1hPa Calm     82% 0.00in /  0mm 0 W/m2
05:24 70.1 °F /  21.2 °C 64.4 °F /  18 °C 30.01in /  1016.1hPa Calm     82% 0.00in /  0mm 5 W/m2
05:29 70.1 °F /  21.2 °C 64.7 °F /  18.2 °C 30.01in /  1016.1hPa Calm     82.9% 0.00in /  0mm 9 W/m2
05:34 70.1 °F /  21.2 °C 64.7 °F /  18.2 °C 30.01in /  1016.1hPa Calm     83% 0.00in /  0mm 11 W/m2
05:39 70.1 °F /  21.2 °C 64.7 °F /  18.2 °C 30.02in /  1016.5hPa Calm     83% 0.00in /  0mm 14 W/m2
05:44 70 °F /  21.1 °C 64.6 °F /  18.1 °C 30.02in /  1016.5hPa Calm     83% 0.00in /  0mm 18 W/m2
05:49 70 °F /  21.1 °C 64.6 °F /  18.1 °C 30.02in /  1016.5hPa Calm     83% 0.00in /  0mm 21 W/m2
05:54 70.1 °F /  21.2 °C 65 °F /  18.3 °C 30.02in /  1016.5hPa Calm     83.9% 0.00in /  0mm 25 W/m2
05:59 70.1 °F /  21.2 °C 65.1 °F /  18.4 °C 30.02in /  1016.5hPa Calm     84% 0.00in /  0mm 28 W/m2
06:04 70.1 °F /  21.2 °C 65.1 °F /  18.4 °C 30.03in /  1016.8hPa Calm     84% 0.00in /  0mm 32 W/m2
06:09 70.2 °F /  21.2 °C 65.2 °F /  18.4 °C 30.02in /  1016.5hPa Calm     84% 0.00in /  0mm 33 W/m2
06:14 70.3 °F /  21.3 °C 65.3 °F /  18.5 °C 30.03in /  1016.8hPa Calm     84% 0.00in /  0mm 37 W/m2
06:19 70.5 °F /  21.4 °C 65.4 °F /  18.6 °C 30.03in /  1016.8hPa Calm     84% 0.00in /  0mm 39 W/m2
06:24 70.6 °F /  21.4 °C 65.6 °F /  18.7 °C 30.03in /  1016.8hPa Calm     84% 0.00in /  0mm 44 W/m2
06:29 70.8 °F /  21.6 °C 65.7 °F /  18.7 °C 30.03in /  1016.8hPa Calm     84% 0.00in /  0mm 51 W/m2
06:34 71 °F /  21.7 °C 65.8 °F /  18.8 °C 30.03in /  1016.8hPa Calm     83.8% 0.00in /  0mm 54 W/m2
06:39 71.2 °F /  21.8 °C 65.8 °F /  18.8 °C 30.03in /  1016.8hPa Calm     83% 0.00in /  0mm 60 W/m2
06:44 71.6 °F /  22 °C 66.3 °F /  19.1 °C 30.03in /  1016.8hPa Calm     83.3% 0.00in /  0mm 63 W/m2
06:49 72.1 °F /  22.3 °C 66.6 °F /  19.2 °C 30.03in /  1016.8hPa Calm     83% 0.00in /  0mm 69 W/m2
06:54 72.7 °F /  22.6 °C 66.9 °F /  19.4 °C 30.03in /  1016.8hPa Calm     82% 0.00in /  0mm 72 W/m2
06:59 73.3 °F /  22.9 °C 67.3 °F /  19.6 °C 30.03in /  1016.8hPa Calm     81.4% 0.00in /  0mm 76 W/m2
07:04 74 °F /  23.3 °C 67.5 °F /  19.7 °C 30.03in /  1016.8hPa Calm     79.9% 0.00in /  0mm 76 W/m2
07:09 74.7 °F /  23.7 °C 67.5 °F /  19.7 °C 30.03in /  1016.8hPa Calm     78.5% 0.00in /  0mm 79 W/m2
07:14 75.3 °F /  24.1 °C 67.9 °F /  19.9 °C 30.03in /  1016.8hPa Calm     77.8% 0.00in /  0mm 84 W/m2
07:19 75.9 °F /  24.4 °C 68.1 °F /  20.1 °C 30.03in /  1016.8hPa Calm     76.8% 0.00in /  0mm 102 W/m2
07:24 76.5 °F /  24.7 °C 68.4 °F /  20.2 °C 30.03in /  1016.8hPa Calm     76% 0.00in /  0mm 278 W/m2
07:29 77.2 °F /  25.1 °C 68.8 °F /  20.4 °C 30.03in /  1016.8hPa Calm     75.2% 0.00in /  0mm 294 W/m2
07:34 77.8 °F /  25.4 °C 68.8 °F /  20.4 °C 30.03in /  1016.8hPa Calm     73.7% 0.00in /  0mm 315 W/m2
07:39 78.4 °F /  25.8 °C 68.9 °F /  20.5 °C 30.03in /  1016.8hPa Calm     72.6% 0.00in /  0mm 327 W/m2
07:44 78.9 °F /  26.1 °C 69.1 °F /  20.6 °C 30.03in /  1016.8hPa Calm     72% 0.00in /  0mm 346 W/m2
07:49 79.4 °F /  26.3 °C 69.3 °F /  20.7 °C 30.03in /  1016.8hPa Calm     71.5% 0.00in /  0mm 362 W/m2
07:54 79.7 °F /  26.5 °C 69.7 °F /  20.9 °C 30.04in /  1017.2hPa Calm     71.5% 0.00in /  0mm 380 W/m2
07:59 80.3 °F /  26.8 °C 70.2 °F /  21.2 °C 30.04in /  1017.2hPa Calm     71.5% 0.00in /  0mm 403 W/m2
08:00 80.6 °F /  27 °C 70.3 °F /  21.3 °C 30.04in /  1017.2hPa Calm     71% 0.00in /  0mm 403 W/m2
08:09 81.8 °F /  27.7 °C 71 °F /  21.7 °C 30.04in /  1017.2hPa Calm     69.8% 0.00in /  0mm 441 W/m2
08:14 82.5 °F /  28.1 °C 70.9 °F /  21.6 °C 30.04in /  1017.2hPa Calm     68.1% 0.00in /  0mm 461 W/m2
08:19 83 °F /  28.3 °C 70.9 °F /  21.6 °C 30.04in /  1017.2hPa Calm   1mph /  1.6km/h 67.1% 0.00in /  0mm 475 W/m2
08:24 83.3 °F /  28.5 °C 71 °F /  21.7 °C 30.04in /  1017.2hPa Calm   1mph /  1.6km/h 66.6% 0.00in /  0mm 490 W/m2
08:29 83.8 °F /  28.8 °C 71.7 °F /  22.1 °C 30.04in /  1017.2hPa Calm   1mph /  1.6km/h 67% 0.00in /  0mm 508 W/m2
08:34 84.4 °F /  29.1 °C 72 °F /  22.2 °C 30.04in /  1017.2hPa Calm   1mph /  1.6km/h 66.4% 0.00in /  0mm 520 W/m2
08:39 84.9 °F /  29.4 °C 72.1 °F /  22.3 °C 30.04in /  1017.2hPa Calm     65.5% 0.00in /  0mm 536 W/m2
08:44 85.2 °F /  29.6 °C 71.8 °F /  22.1 °C 30.04in /  1017.2hPa Calm   1mph /  1.6km/h 64.2% 0.00in /  0mm 548 W/m2
08:49 85.3 °F /  29.6 °C 71.9 °F /  22.2 °C 30.04in /  1017.2hPa Calm   1mph /  1.6km/h 64.2% 0.00in /  0mm 564 W/m2
08:54 85.6 °F /  29.8 °C 71.8 °F /  22.1 °C 30.04in /  1017.2hPa Calm   1mph /  1.6km/h 63.6% 0.00in /  0mm 575 W/m2
08:59 85.9 °F /  29.9 °C 72.3 °F /  22.4 °C 30.04in /  1017.2hPa Calm   2mph /  3.2km/h 63.9% 0.00in /  0mm 589 W/m2
09:04 86.4 °F /  30.2 °C 72.7 °F /  22.6 °C 30.04in /  1017.2hPa Calm   2mph /  3.2km/h 63.9% 0.00in /  0mm 599 W/m2
09:09 86.9 °F /  30.5 °C 72.9 °F /  22.7 °C 30.05in /  1017.5hPa Calm     63.2% 0.00in /  0mm 612 W/m2
09:14 87.4 °F /  30.8 °C 72.9 °F /  22.7 °C 30.04in /  1017.2hPa Calm     62.2% 0.00in /  0mm 631 W/m2
09:19 87.8 °F /  31 °C 73.4 °F /  23 °C 30.04in /  1017.2hPa Calm     62.6% 0.00in /  0mm 643 W/m2
09:24 88.2 °F /  31.2 °C 73.9 °F /  23.3 °C 30.04in /  1017.2hPa Calm   1mph /  1.6km/h 62.7% 0.00in /  0mm 645 W/m2
09:29 88.7 °F /  31.5 °C 73.6 °F /  23.1 °C 30.04in /  1017.2hPa Calm   1mph /  1.6km/h 61.2% 0.00in /  0mm 671 W/m2
09:34 89 °F /  31.7 °C 73 °F /  22.8 °C 30.04in /  1017.2hPa Calm   1mph /  1.6km/h 59.3% 0.00in /  0mm 691 W/m2
09:39 89.3 °F /  31.8 °C 73.3 °F /  22.9 °C 30.04in /  1017.2hPa Calm   1mph /  1.6km/h 59.4% 0.00in /  0mm 717 W/m2
09:44 89.7 °F /  32.1 °C 73.4 °F /  23 °C 30.04in /  1017.2hPa Calm   1mph /  1.6km/h 58.8% 0.00in /  0mm 729 W/m2
09:49 90.1 °F /  32.3 °C 73.3 °F /  22.9 °C 30.04in /  1017.2hPa SW 0.1mph /  0.2km/h 3mph /  4.8km/h 57.8% 0.00in /  0mm 740 W/m2
09:54 90.5 °F /  32.5 °C 74.2 °F /  23.4 °C 30.04in /  1017.2hPa SW 0.1mph /  0.2km/h 3mph /  4.8km/h 59.1% 0.00in /  0mm 793 W/m2
09:59 90.9 °F /  32.7 °C 74.1 °F /  23.4 °C 30.04in /  1017.2hPa SW 0.1mph /  0.2km/h 3mph /  4.8km/h 58% 0.00in /  0mm 793 W/m2
10:04 91.2 °F /  32.9 °C 73.9 °F /  23.3 °C 30.04in /  1017.2hPa Calm   3mph /  4.8km/h 57.1% 0.00in /  0mm 761 W/m2
10:09 91.4 °F /  33 °C 73.8 °F /  23.2 °C 30.04in /  1017.2hPa Calm   1mph /  1.6km/h 56.5% 0.00in /  0mm 770 W/m2
10:14 91.6 °F /  33.1 °C 73.8 °F /  23.2 °C 30.04in /  1017.2hPa SW 0.3mph /  0.5km/h 3mph /  4.8km/h 56.2% 0.00in /  0mm 782 W/m2
10:19 91.8 °F /  33.2 °C 73.3 °F /  22.9 °C 30.04in /  1017.2hPa Calm   3mph /  4.8km/h 55% 0.00in /  0mm 789 W/m2
10:24 92 °F /  33.3 °C 73.6 °F /  23.1 °C 30.04in /  1017.2hPa Calm   3mph /  4.8km/h 55.3% 0.00in /  0mm 800 W/m2
10:29 92.1 °F /  33.4 °C 73.4 °F /  23 °C 30.04in /  1017.2hPa Calm   3mph /  4.8km/h 54.6% 0.00in /  0mm 810 W/m2
10:34 92.1 °F /  33.4 °C 73.6 °F /  23.1 °C 30.04in /  1017.2hPa Calm   3mph /  4.8km/h 55% 0.00in /  0mm 819 W/m2
10:39 92 °F /  33.3 °C 73.2 °F /  22.9 °C 30.04in /  1017.2hPa Calm   1mph /  1.6km/h 54.3% 0.00in /  0mm 823 W/m2
10:44 92 °F /  33.3 °C 73.5 °F /  23.1 °C 30.04in /  1017.2hPa SW 0.2mph /  0.3km/h 2mph /  3.2km/h 54.9% 0.00in /  0mm 833 W/m2
10:49 92 °F /  33.3 °C 73.4 °F /  23 °C 30.04in /  1017.2hPa Calm   2mph /  3.2km/h 54.8% 0.00in /  0mm 844 W/m2
10:54 92.4 °F /  33.6 °C 74 °F /  23.3 °C 30.04in /  1017.2hPa SW 0.3mph /  0.5km/h 3mph /  4.8km/h 55.2% 0.00in /  0mm 875 W/m2
10:59 92.7 °F /  33.7 °C 73.3 °F /  22.9 °C 30.03in /  1016.8hPa SW 0.7mph /  1.1km/h 4mph /  6.4km/h 53.4% 0.00in /  0mm 879 W/m2
11:04 92.7 °F /  33.7 °C 73.8 °F /  23.2 °C 30.03in /  1016.8hPa SW 0.1mph /  0.2km/h 4mph /  6.4km/h 54.4% 0.00in /  0mm 962 W/m2
11:09 92.8 °F /  33.8 °C 73.9 °F /  23.3 °C 30.03in /  1016.8hPa Calm   2mph /  3.2km/h 54.3% 0.00in /  0mm 984 W/m2
11:14 92.8 °F /  33.8 °C 74.3 °F /  23.5 °C 30.03in /  1016.8hPa SW 0.7mph /  1.1km/h 3mph /  4.8km/h 55.1% 0.00in /  0mm 1000 W/m2
11:19 93 °F /  33.9 °C 74.1 °F /  23.4 °C 30.03in /  1016.8hPa WSW 1.1mph /  1.8km/h 5mph /  8km/h 54.4% 0.00in /  0mm 1000 W/m2
11:24 93.2 °F /  34 °C 74.9 °F /  23.8 °C 30.03in /  1016.8hPa Calm   5mph /  8km/h 55.5% 0.00in /  0mm 1037 W/m2
11:29 93.6 °F /  34.2 °C 74.5 °F /  23.6 °C 30.03in /  1016.8hPa WSW 0.1mph /  0.2km/h 5mph /  8km/h 54% 0.00in /  0mm 1037 W/m2
11:34 94 °F /  34.4 °C 73.3 °F /  22.9 °C 30.03in /  1016.8hPa WSW 1.2mph /  1.9km/h 7mph /  11.3km/h 51.3% 0.00in /  0mm 1002 W/m2
11:39 94.3 °F /  34.6 °C 72.2 °F /  22.3 °C 30.03in /  1016.8hPa WSW 0.2mph /  0.3km/h 7mph /  11.3km/h 49% 0.00in /  0mm 983 W/m2
11:44 94.1 °F /  34.5 °C 72.1 °F /  22.3 °C 30.03in /  1016.8hPa WSW 1mph /  1.6km/h 7mph /  11.3km/h 49.1% 0.00in /  0mm 972 W/m2
11:49 94.1 °F /  34.5 °C 72.7 °F /  22.6 °C 30.03in /  1016.8hPa WSW 0.3mph /  0.5km/h 7mph /  11.3km/h 50.1% 0.00in /  0mm 984 W/m2
11:54 94.1 °F /  34.5 °C 71.7 °F /  22.1 °C 30.02in /  1016.5hPa WSW 1mph /  1.6km/h 7mph /  11.3km/h 48.3% 0.00in /  0mm 1039 W/m2
11:59 94.1 °F /  34.5 °C 72.1 °F /  22.3 °C 30.02in /  1016.5hPa WSW 2.2mph /  3.5km/h 7mph /  11.3km/h 49.1% 0.00in /  0mm 1039 W/m2
12:00 94 °F /  34.4 °C 72.5 °F /  22.5 °C 30.02in /  1016.5hPa WSW 2mph /  3.2km/h 7mph /  11.3km/h 50% 0.00in /  0mm 225 W/m2
12:09 93.3 °F /  34.1 °C 71 °F /  21.7 °C 30.02in /  1016.5hPa WSW 0.5mph /  0.8km/h 4mph /  6.4km/h 48.5% 0.00in /  0mm 1053 W/m2
12:14 93 °F /  33.9 °C 71.5 °F /  21.9 °C 30.01in /  1016.1hPa WSW 1.8mph /  2.9km/h 5mph /  8km/h 49.8% 0.00in /  0mm 1053 W/m2
12:19 93.1 °F /  33.9 °C 72.2 °F /  22.3 °C 30.01in /  1016.1hPa WSW 0.7mph /  1.1km/h 6mph /  9.7km/h 50.7% 0.00in /  0mm 1067 W/m2
12:24 93.4 °F /  34.1 °C 72.6 °F /  22.6 °C 30.01in /  1016.1hPa WSW 1.9mph /  3.1km/h 6mph /  9.7km/h 51.1% 0.00in /  0mm 1083 W/m2
12:29 93.3 °F /  34.1 °C 72 °F /  22.2 °C 30.01in /  1016.1hPa WSW 1.3mph /  2.1km/h 6mph /  9.7km/h 50.2% 0.00in /  0mm 220 W/m2
12:34 93.1 °F /  33.9 °C 72.5 °F /  22.5 °C 30.01in /  1016.1hPa WSW 1.7mph /  2.7km/h 6mph /  9.7km/h 51.3% 0.00in /  0mm 993 W/m2
12:39 93.1 °F /  33.9 °C 73.4 °F /  23 °C 30.01in /  1016.1hPa WSW 1.2mph /  1.9km/h 5mph /  8km/h 53% 0.00in /  0mm 1058 W/m2
12:44 93.5 °F /  34.2 °C 72.6 °F /  22.6 °C 30.01in /  1016.1hPa WSW 2.4mph /  3.9km/h 6mph /  9.7km/h 50.9% 0.00in /  0mm 1058 W/m2
12:49 93.8 °F /  34.3 °C 72.8 °F /  22.7 °C 30.01in /  1016.1hPa WSW 1.6mph /  2.6km/h 6mph /  9.7km/h 50.7% 0.00in /  0mm 1041 W/m2
12:54 93.9 °F /  34.4 °C 72.7 °F /  22.6 °C 30.01in /  1016.1hPa WSW 1.8mph /  2.9km/h 7mph /  11.3km/h 50.4% 0.00in /  0mm 1039 W/m2
12:59 94 °F /  34.4 °C 72.9 °F /  22.7 °C 30.00in /  1015.8hPa West 2mph /  3.2km/h 13mph /  20.9km/h 50.6% 0.00in /  0mm 1039 W/m2
13:04 93.9 °F /  34.4 °C 72.9 °F /  22.7 °C 30.00in /  1015.8hPa West 1.9mph /  3.1km/h 13mph /  20.9km/h 50.8% 0.00in /  0mm 1025 W/m2
13:09 94 °F /  34.4 °C 73.1 °F /  22.8 °C 30.00in /  1015.8hPa WSW 2.2mph /  3.5km/h 12mph /  19.3km/h 51% 0.00in /  0mm 1014 W/m2
13:14 94.1 °F /  34.5 °C 72.6 °F /  22.6 °C 30.00in /  1015.8hPa WSW 1.4mph /  2.3km/h 12mph /  19.3km/h 49.9% 0.00in /  0mm 1081 W/m2
13:19 94 °F /  34.4 °C 72.2 °F /  22.3 °C 30.00in /  1015.8hPa WSW 3.5mph /  5.6km/h 12mph /  19.3km/h 49.4% 0.00in /  0mm 1081 W/m2
13:24 94.1 °F /  34.5 °C 72.5 °F /  22.5 °C 30.00in /  1015.8hPa WSW 2.7mph /  4.3km/h 12mph /  19.3km/h 49.8% 0.00in /  0mm 1018 W/m2
13:29 94.2 °F /  34.6 °C 72.4 °F /  22.4 °C 30.00in /  1015.8hPa SW 1.1mph /  1.8km/h 12mph /  19.3km/h 49.5% 0.00in /  0mm 1078 W/m2
13:34 94.2 °F /  34.6 °C 73.4 °F /  23 °C 30.00in /  1015.8hPa West 2.6mph /  4.2km/h 12mph /  19.3km/h 51.1% 0.00in /  0mm 1035 W/m2
13:39 94.3 °F /  34.6 °C 72.4 °F /  22.4 °C 30.00in /  1015.8hPa SW 2.6mph /  4.2km/h 10mph /  16.1km/h 49.3% 0.00in /  0mm 1055 W/m2
13:44 94.4 °F /  34.7 °C 73.4 °F /  23 °C 29.99in /  1015.5hPa WSW 1.6mph /  2.6km/h 10mph /  16.1km/h 50.8% 0.00in /  0mm 1035 W/m2
13:49 94.8 °F /  34.9 °C 73.2 °F /  22.9 °C 29.99in /  1015.5hPa SW 2.8mph /  4.5km/h 10mph /  16.1km/h 50% 0.00in /  0mm 1069 W/m2
13:54 95.2 °F /  35.1 °C 72.5 °F /  22.5 °C 29.99in /  1015.5hPa SW 2.9mph /  4.7km/h 12mph /  19.3km/h 48.1% 0.00in /  0mm 1069 W/m2
13:59 95.2 °F /  35.1 °C 72.2 °F /  22.3 °C 29.99in /  1015.5hPa SW 3.2mph /  5.1km/h 12mph /  19.3km/h 47.7% 0.00in /  0mm 1034 W/m2
14:04 95.1 °F /  35.1 °C 72.4 °F /  22.4 °C 29.99in /  1015.5hPa SW 2.6mph /  4.2km/h 12mph /  19.3km/h 48.1% 0.00in /  0mm 977 W/m2
14:09 95.2 °F /  35.1 °C 72.4 °F /  22.4 °C 29.99in /  1015.5hPa SW 2.5mph /  4km/h 9mph /  14.5km/h 47.9% 0.00in /  0mm 1013 W/m2
14:14 95 °F /  35 °C 71.9 °F /  22.2 °C 29.99in /  1015.5hPa WSW 0.9mph /  1.4km/h 9mph /  14.5km/h 47.5% 0.00in /  0mm 229 W/m2
14:19 94.7 °F /  34.8 °C 72.3 °F /  22.4 °C 29.99in /  1015.5hPa WSW 1.1mph /  1.8km/h 9mph /  14.5km/h 48.6% 0.00in /  0mm 1053 W/m2
14:24 94.6 °F /  34.8 °C 73.2 °F /  22.9 °C 29.99in /  1015.5hPa WSW 0.8mph /  1.3km/h 9mph /  14.5km/h 50.2% 0.00in /  0mm 248 W/m2
14:29 94.3 °F /  34.6 °C 74.7 °F /  23.7 °C 29.98in /  1015.1hPa SSW 0.9mph /  1.4km/h 9mph /  14.5km/h 53.3% 0.00in /  0mm 981 W/m2
14:34 94 °F /  34.4 °C 75.2 °F /  24 °C 29.98in /  1015.1hPa South 2mph /  3.2km/h 9mph /  14.5km/h 54.6% 0.00in /  0mm 967 W/m2
14:39 94 °F /  34.4 °C 75.4 °F /  24.1 °C 29.98in /  1015.1hPa WSW 1.2mph /  1.9km/h 6mph /  9.7km/h 55.1% 0.00in /  0mm 956 W/m2
14:44 94.1 °F /  34.5 °C 75.9 °F /  24.4 °C 29.98in /  1015.1hPa WSW 1.3mph /  2.1km/h 6mph /  9.7km/h 55.8% 0.00in /  0mm 1023 W/m2
14:49 94.2 °F /  34.6 °C 76 °F /  24.4 °C 29.98in /  1015.1hPa SW 0.9mph /  1.4km/h 8mph /  12.9km/h 55.6% 0.00in /  0mm 1023 W/m2
14:54 94.2 °F /  34.6 °C 75.9 °F /  24.4 °C 29.98in /  1015.1hPa SW 0.6mph /  1km/h 8mph /  12.9km/h 55.7% 0.00in /  0mm 977 W/m2
14:59 94.3 °F /  34.6 °C 76.1 °F /  24.5 °C 29.98in /  1015.1hPa WSW 2.4mph /  3.9km/h 8mph /  12.9km/h 55.9% 0.00in /  0mm 967 W/m2
15:04 94.4 °F /  34.7 °C 76.1 °F /  24.5 °C 29.98in /  1015.1hPa WSW 1.3mph /  2.1km/h 8mph /  12.9km/h 55.6% 0.00in /  0mm 949 W/m2
15:09 94.4 °F /  34.7 °C 75.6 °F /  24.2 °C 29.98in /  1015.1hPa SSW 1.9mph /  3.1km/h 5mph /  8km/h 54.8% 0.00in /  0mm 949 W/m2
15:14 93.8 °F /  34.3 °C 75 °F /  23.9 °C 29.98in /  1015.1hPa SSW 0.8mph /  1.3km/h 5mph /  8km/h 54.6% 0.00in /  0mm 905 W/m2
15:19 93.4 °F /  34.1 °C 75.6 °F /  24.2 °C 29.98in /  1015.1hPa WSW 0.5mph /  0.8km/h 5mph /  8km/h 56.5% 0.00in /  0mm 882 W/m2
15:24 93.3 °F /  34.1 °C 76 °F /  24.4 °C 29.97in /  1014.8hPa WSW 1mph /  1.6km/h 5mph /  8km/h 57.3% 0.00in /  0mm 867 W/m2
15:29 93.2 °F /  34 °C 75.3 °F /  24.1 °C 29.97in /  1014.8hPa SW 1mph /  1.6km/h 5mph /  8km/h 56.3% 0.00in /  0mm 853 W/m2
15:34 92.9 °F /  33.8 °C 75 °F /  23.9 °C 29.97in /  1014.8hPa SSW 1.1mph /  1.8km/h 5mph /  8km/h 56.2% 0.00in /  0mm 160 W/m2
15:39 92.6 °F /  33.7 °C 75.3 °F /  24.1 °C 29.97in /  1014.8hPa SW 0.2mph /  0.3km/h 4mph /  6.4km/h 57.3% 0.00in /  0mm 817 W/m2
15:44 92.2 °F /  33.4 °C 75.4 °F /  24.1 °C 29.97in /  1014.8hPa WSW 0.8mph /  1.3km/h 5mph /  8km/h 58.1% 0.00in /  0mm 821 W/m2
15:49 92 °F /  33.3 °C 75.9 °F /  24.4 °C 29.97in /  1014.8hPa WSW 0.1mph /  0.2km/h 5mph /  8km/h 59.5% 0.00in /  0mm 830 W/m2
15:54 92.1 °F /  33.4 °C 76.4 °F /  24.7 °C 29.97in /  1014.8hPa SW 0.8mph /  1.3km/h 5mph /  8km/h 60.4% 0.00in /  0mm 773 W/m2
15:59 92.1 °F /  33.4 °C 76 °F /  24.4 °C 29.97in /  1014.8hPa SW 1mph /  1.6km/h 5mph /  8km/h 59.6% 0.00in /  0mm 744 W/m2
16:00 92.1 °F /  33.4 °C 76.2 °F /  24.6 °C 29.97in /  1014.8hPa Calm   5mph /  8km/h 60% 0.00in /  0mm 710 W/m2
16:09 91.4 °F /  33 °C 74.9 °F /  23.8 °C 29.96in /  1014.4hPa South 0.3mph /  0.5km/h 4mph /  6.4km/h 58.7% 0.00in /  0mm 482 W/m2
16:14 90.9 °F /  32.7 °C 75.1 °F /  23.9 °C 29.96in /  1014.4hPa South 0.7mph /  1.1km/h 4mph /  6.4km/h 60.1% 0.00in /  0mm 482 W/m2
16:19 90.6 °F /  32.6 °C 75.6 °F /  24.2 °C 29.96in /  1014.4hPa SSW 1.2mph /  1.9km/h 4mph /  6.4km/h 61.5% 0.00in /  0mm 162 W/m2
16:24 90.6 °F /  32.6 °C 75.5 °F /  24.2 °C 29.96in /  1014.4hPa SW 0.9mph /  1.4km/h 4mph /  6.4km/h 61.5% 0.00in /  0mm 127 W/m2
16:29 90.3 °F /  32.4 °C 74.9 °F /  23.8 °C 29.96in /  1014.4hPa South 1.9mph /  3.1km/h 6mph /  9.7km/h 60.8% 0.00in /  0mm 155 W/m2
16:34 90.1 °F /  32.3 °C 75.3 °F /  24.1 °C 29.96in /  1014.4hPa SW 1.3mph /  2.1km/h 6mph /  9.7km/h 61.8% 0.00in /  0mm 125 W/m2
16:39 90 °F /  32.2 °C 75.3 °F /  24.1 °C 29.97in /  1014.8hPa SW 1.5mph /  2.4km/h 6mph /  9.7km/h 62% 0.00in /  0mm 107 W/m2
16:44 89.8 °F /  32.1 °C 75.1 °F /  23.9 °C 29.96in /  1014.4hPa SW 1mph /  1.6km/h 6mph /  9.7km/h 62.1% 0.00in /  0mm 125 W/m2
16:49 89.7 °F /  32.1 °C 75.4 °F /  24.1 °C 29.97in /  1014.8hPa SSW 1.6mph /  2.6km/h 10mph /  16.1km/h 62.9% 0.00in /  0mm 97 W/m2
16:54 89.7 °F /  32.1 °C 75 °F /  23.9 °C 29.97in /  1014.8hPa South 0.8mph /  1.3km/h 10mph /  16.1km/h 62.2% 0.00in /  0mm 84 W/m2
16:59 89.6 °F /  32 °C 74.8 °F /  23.8 °C 29.97in /  1014.8hPa South 1.4mph /  2.3km/h 10mph /  16.1km/h 62% 0.00in /  0mm 79 W/m2
17:04 89.4 °F /  31.9 °C 75 °F /  23.9 °C 29.97in /  1014.8hPa SW 1mph /  1.6km/h 10mph /  16.1km/h 62.6% 0.00in /  0mm 76 W/m2
17:09 89.3 °F /  31.8 °C 75.1 °F /  23.9 °C 29.97in /  1014.8hPa SW 1.6mph /  2.6km/h 11mph /  17.7km/h 63% 0.00in /  0mm 77 W/m2
17:14 89.2 °F /  31.8 °C 75 °F /  23.9 °C 29.97in /  1014.8hPa SSW 3.3mph /  5.3km/h 11mph /  17.7km/h 63% 0.00in /  0mm 79 W/m2
17:19 89 °F /  31.7 °C 74.6 °F /  23.7 °C 29.97in /  1014.8hPa SW 1.7mph /  2.7km/h 11mph /  17.7km/h 62.5% 0.00in /  0mm 81 W/m2
17:24 88.9 °F /  31.6 °C 74.7 °F /  23.7 °C 29.97in /  1014.8hPa SW 0.8mph /  1.3km/h 11mph /  17.7km/h 63% 0.00in /  0mm 86 W/m2
17:29 88.7 °F /  31.5 °C 74.4 °F /  23.6 °C 29.97in /  1014.8hPa SSW 1.6mph /  2.6km/h 11mph /  17.7km/h 62.8% 0.00in /  0mm 86 W/m2
17:34 88.4 °F /  31.3 °C 74.2 °F /  23.4 °C 29.97in /  1014.8hPa SW 2.2mph /  3.5km/h 11mph /  17.7km/h 63% 0.00in /  0mm 104 W/m2
17:39 88.1 °F /  31.2 °C 74.6 °F /  23.7 °C 29.97in /  1014.8hPa SW 0.5mph /  0.8km/h 9mph /  14.5km/h 64.3% 0.00in /  0mm 137 W/m2
17:44 88.1 °F /  31.2 °C 74.8 °F /  23.8 °C 29.96in /  1014.4hPa SW 1.3mph /  2.1km/h 9mph /  14.5km/h 64.9% 0.00in /  0mm 130 W/m2
17:49 88.1 °F /  31.2 °C 74.6 °F /  23.7 °C 29.97in /  1014.8hPa SW 0.7mph /  1.1km/h 9mph /  14.5km/h 64.5% 0.00in /  0mm 123 W/m2
17:54 88.2 °F /  31.2 °C 74.7 °F /  23.7 °C 29.97in /  1014.8hPa SW 1.4mph /  2.3km/h 9mph /  14.5km/h 64.4% 0.00in /  0mm 121 W/m2
17:59 88.3 °F /  31.3 °C 74.6 °F /  23.7 °C 29.97in /  1014.8hPa SW 0.1mph /  0.2km/h 9mph /  14.5km/h 64% 0.00in /  0mm 105 W/m2
18:04 88.2 °F /  31.2 °C 74.4 °F /  23.6 °C 29.97in /  1014.8hPa SW 0.5mph /  0.8km/h 9mph /  14.5km/h 63.8% 0.00in /  0mm 91 W/m2
18:09 88 °F /  31.1 °C 74 °F /  23.3 °C 29.98in /  1015.1hPa SW 0.3mph /  0.5km/h 6mph /  9.7km/h 63.3% 0.00in /  0mm 86 W/m2
18:14 87.9 °F /  31.1 °C 74.3 °F /  23.5 °C 29.98in /  1015.1hPa SW 0.3mph /  0.5km/h 6mph /  9.7km/h 64.3% 0.00in /  0mm 84 W/m2
18:19 87.7 °F /  30.9 °C 74.5 °F /  23.6 °C 29.98in /  1015.1hPa SW 0.6mph /  1km/h 6mph /  9.7km/h 65% 0.00in /  0mm 86 W/m2
18:24 87.6 °F /  30.9 °C 74.3 °F /  23.5 °C 29.98in /  1015.1hPa SW 1mph /  1.6km/h 10mph /  16.1km/h 64.8% 0.00in /  0mm 79 W/m2
18:29 87.3 °F /  30.7 °C 74.4 °F /  23.6 °C 29.98in /  1015.1hPa SW 0.3mph /  0.5km/h 10mph /  16.1km/h 65.7% 0.00in /  0mm 81 W/m2
18:34 87.1 °F /  30.6 °C 74.4 °F /  23.6 °C 29.98in /  1015.1hPa SW 0.8mph /  1.3km/h 10mph /  16.1km/h 66.2% 0.00in /  0mm 74 W/m2
18:39 86.8 °F /  30.4 °C 74 °F /  23.3 °C 29.98in /  1015.1hPa SSW 1.3mph /  2.1km/h 9mph /  14.5km/h 66% 0.00in /  0mm 69 W/m2
18:44 86.4 °F /  30.2 °C 74.1 °F /  23.4 °C 29.98in /  1015.1hPa SW 0.3mph /  0.5km/h 9mph /  14.5km/h 66.8% 0.00in /  0mm 53 W/m2
18:49 86.1 °F /  30.1 °C 74.2 °F /  23.4 °C 29.97in /  1014.8hPa SW 1.2mph /  1.9km/h 11mph /  17.7km/h 67.7% 0.00in /  0mm 47 W/m2
18:54 85.7 °F /  29.8 °C 74 °F /  23.3 °C 29.97in /  1014.8hPa SW 0.3mph /  0.5km/h 11mph /  17.7km/h 68% 0.00in /  0mm 33 W/m2
18:59 85.4 °F /  29.7 °C 74 °F /  23.3 °C 29.97in /  1014.8hPa WSW 0.4mph /  0.6km/h 11mph /  17.7km/h 68.8% 0.00in /  0mm 32 W/m2
19:04 85.1 °F /  29.5 °C 74 °F /  23.3 °C 29.97in /  1014.8hPa SW 0.2mph /  0.3km/h 11mph /  17.7km/h 69.5% 0.00in /  0mm 42 W/m2
19:09 84.8 °F /  29.3 °C 74.1 °F /  23.4 °C 29.97in /  1014.8hPa SW 0.1mph /  0.2km/h 2mph /  3.2km/h 70.4% 0.00in /  0mm 47 W/m2
19:14 84.6 °F /  29.2 °C 74 °F /  23.3 °C 29.97in /  1014.8hPa WSW 0.3mph /  0.5km/h 3mph /  4.8km/h 70.4% 0.00in /  0mm 40 W/m2
19:19 84.4 °F /  29.1 °C 73.2 °F /  22.9 °C 29.97in /  1014.8hPa WSW 0.1mph /  0.2km/h 3mph /  4.8km/h 69% 0.00in /  0mm 35 W/m2
19:24 84.3 °F /  29.1 °C 73.1 °F /  22.8 °C 29.98in /  1015.1hPa Calm   3mph /  4.8km/h 69.1% 0.00in /  0mm 30 W/m2
19:29 84.2 °F /  29 °C 72.9 °F /  22.7 °C 29.98in /  1015.1hPa Calm   3mph /  4.8km/h 68.9% 0.00in /  0mm 23 W/m2
19:34 84.1 °F /  28.9 °C 72.4 °F /  22.4 °C 29.98in /  1015.1hPa WSW 0.1mph /  0.2km/h 3mph /  4.8km/h 68% 0.00in /  0mm 18 W/m2
19:39 84 °F /  28.9 °C 72.2 °F /  22.3 °C 29.98in /  1015.1hPa Calm   2mph /  3.2km/h 67.8% 0.00in /  0mm 14 W/m2
19:44 83.9 °F /  28.8 °C 72 °F /  22.2 °C 29.98in /  1015.1hPa Calm   2mph /  3.2km/h 67.5% 0.00in /  0mm 11 W/m2
19:49 83.7 °F /  28.7 °C 71.8 °F /  22.1 °C 29.98in /  1015.1hPa Calm   2mph /  3.2km/h 67.5% 0.00in /  0mm 9 W/m2
19:54 83.5 °F /  28.6 °C 71.9 °F /  22.2 °C 29.98in /  1015.1hPa Calm   2mph /  3.2km/h 68.2% 0.00in /  0mm 7 W/m2
19:59 83.3 °F /  28.5 °C 72.4 °F /  22.4 °C 29.98in /  1015.1hPa Calm   2mph /  3.2km/h 69.7% 0.00in /  0mm 5 W/m2
20:00 83.2 °F /  28.4 °C 72.4 °F /  22.4 °C 29.98in /  1015.1hPa Calm   2mph /  3.2km/h 70% 0.00in /  0mm 5 W/m2
20:09 82.9 °F /  28.3 °C 73 °F /  22.8 °C 29.98in /  1015.1hPa Calm   1mph /  1.6km/h 72% 0.00in /  0mm 0 W/m2
20:14 82.8 °F /  28.2 °C 72.9 °F /  22.7 °C 29.98in /  1015.1hPa Calm   1mph /  1.6km/h 72.1% 0.00in /  0mm 0 W/m2
20:19 82.6 °F /  28.1 °C 73.1 °F /  22.8 °C 29.98in /  1015.1hPa Calm   1mph /  1.6km/h 73% 0.00in /  0mm 0 W/m2
20:24 82.5 °F /  28.1 °C 72.9 °F /  22.7 °C 29.98in /  1015.1hPa Calm   1mph /  1.6km/h 73% 0.00in /  0mm 0 W/m2
20:29 82.3 °F /  27.9 °C 73.1 °F /  22.8 °C 29.98in /  1015.1hPa Calm   1mph /  1.6km/h 73.8% 0.00in /  0mm 0 W/m2
20:34 82.1 °F /  27.8 °C 73 °F /  22.8 °C 29.98in /  1015.1hPa WSW 0.1mph /  0.2km/h 2mph /  3.2km/h 74% 0.00in /  0mm 0 W/m2
20:39 81.9 °F /  27.7 °C 72.8 °F /  22.7 °C 29.98in /  1015.1hPa WSW 0.1mph /  0.2km/h 2mph /  3.2km/h 74% 0.00in /  0mm 0 W/m2
20:44 81.7 °F /  27.6 °C 72.6 °F /  22.6 °C 29.98in /  1015.1hPa Calm   2mph /  3.2km/h 74% 0.00in /  0mm 0 W/m2
20:49 81.6 °F /  27.6 °C 72.5 °F /  22.5 °C 29.98in /  1015.1hPa Calm   2mph /  3.2km/h 74% 0.00in /  0mm 0 W/m2
20:54 81.4 °F /  27.4 °C 72.6 °F /  22.6 °C 29.98in /  1015.1hPa Calm   2mph /  3.2km/h 74.7% 0.00in /  0mm 0 W/m2
20:59 81.2 °F /  27.3 °C 72.5 °F /  22.5 °C 29.99in /  1015.5hPa Calm   2mph /  3.2km/h 75% 0.00in /  0mm 0 W/m2
21:04 81.1 °F /  27.3 °C 72.4 °F /  22.4 °C 29.99in /  1015.5hPa Calm   2mph /  3.2km/h 75% 0.00in /  0mm 0 W/m2
21:09 80.9 °F /  27.2 °C 72.6 °F /  22.6 °C 29.99in /  1015.5hPa Calm     75.8% 0.00in /  0mm 0 W/m2
21:14 80.8 °F /  27.1 °C 72.5 °F /  22.5 °C 29.99in /  1015.5hPa Calm     76% 0.00in /  0mm 0 W/m2
21:19 80.7 °F /  27.1 °C 72.4 °F /  22.4 °C 29.99in /  1015.5hPa Calm     76% 0.00in /  0mm 0 W/m2
21:24 80.6 °F /  27 °C 72.4 °F /  22.4 °C 29.99in /  1015.5hPa Calm     76.2% 0.00in /  0mm 0 W/m2
21:29 80.5 °F /  26.9 °C 72.6 °F /  22.6 °C 30.00in /  1015.8hPa Calm     77% 0.00in /  0mm 0 W/m2
21:34 80.3 °F /  26.8 °C 72.4 °F /  22.4 °C 30.00in /  1015.8hPa Calm     77% 0.00in /  0mm 0 W/m2
21:39 80.1 °F /  26.7 °C 72.2 °F /  22.3 °C 30.00in /  1015.8hPa Calm     77% 0.00in /  0mm 0 W/m2
21:44 79.9 °F /  26.6 °C 72 °F /  22.2 °C 30.00in /  1015.8hPa SW 0.2mph /  0.3km/h 3mph /  4.8km/h 77% 0.00in /  0mm 0 W/m2
21:49 79.6 °F /  26.4 °C 71.7 °F /  22.1 °C 30.00in /  1015.8hPa Calm   3mph /  4.8km/h 77% 0.00in /  0mm 0 W/m2
21:54 79.3 °F /  26.3 °C 71.5 °F /  21.9 °C 30.00in /  1015.8hPa Calm   3mph /  4.8km/h 77% 0.00in /  0mm 0 W/m2
21:59 79.1 °F /  26.2 °C 71.3 °F /  21.8 °C 30.00in /  1015.8hPa Calm   3mph /  4.8km/h 77% 0.00in /  0mm 0 W/m2
22:04 78.9 °F /  26.1 °C 71.4 °F /  21.9 °C 30.00in /  1015.8hPa Calm   3mph /  4.8km/h 78% 0.00in /  0mm 0 W/m2
22:09 78.7 °F /  25.9 °C 71.3 °F /  21.8 °C 30.00in /  1015.8hPa Calm     78% 0.00in /  0mm 0 W/m2
22:14 78.5 °F /  25.8 °C 71.1 °F /  21.7 °C 30.00in /  1015.8hPa Calm     78.1% 0.00in /  0mm 0 W/m2
22:19 78.4 °F /  25.8 °C 71.3 °F /  21.8 °C 29.99in /  1015.5hPa Calm     79% 0.00in /  0mm 0 W/m2
22:24 78.2 °F /  25.7 °C 71.1 °F /  21.7 °C 29.99in /  1015.5hPa Calm     79% 0.00in /  0mm 0 W/m2
22:29 78 °F /  25.6 °C 71 °F /  21.7 °C 29.99in /  1015.5hPa Calm     79% 0.00in /  0mm 0 W/m2
22:34 77.8 °F /  25.4 °C 70.8 °F /  21.6 °C 30.00in /  1015.8hPa Calm     79% 0.00in /  0mm 0 W/m2
22:39 77.7 °F /  25.4 °C 70.6 °F /  21.4 °C 30.00in /  1015.8hPa Calm     79% 0.00in /  0mm 0 W/m2
22:44 77.5 °F /  25.3 °C 70.9 °F /  21.6 °C 30.00in /  1015.8hPa Calm     80% 0.00in /  0mm 0 W/m2
22:49 77.3 °F /  25.2 °C 70.7 °F /  21.5 °C 30.00in /  1015.8hPa Calm     80% 0.00in /  0mm 0 W/m2
22:54 77.2 °F /  25.1 °C 70.6 °F /  21.4 °C 30.00in /  1015.8hPa Calm     80% 0.00in /  0mm 0 W/m2
22:59 77.1 °F /  25.1 °C 70.7 °F /  21.5 °C 30.00in /  1015.8hPa Calm     80.6% 0.00in /  0mm 0 W/m2
23:04 76.9 °F /  24.9 °C 70.7 °F /  21.5 °C 30.00in /  1015.8hPa Calm     81% 0.00in /  0mm 0 W/m2
23:09 76.8 °F /  24.9 °C 70.5 °F /  21.4 °C 30.00in /  1015.8hPa Calm     81% 0.00in /  0mm 0 W/m2
23:14 76.7 °F /  24.8 °C 70.4 °F /  21.3 °C 30.00in /  1015.8hPa Calm   1mph /  1.6km/h 81% 0.00in /  0mm 0 W/m2
23:19 76.5 °F /  24.7 °C 70.4 °F /  21.3 °C 30.00in /  1015.8hPa Calm   1mph /  1.6km/h 81.4% 0.00in /  0mm 0 W/m2
23:24 76.4 °F /  24.7 °C 70.5 °F /  21.4 °C 30.00in /  1015.8hPa Calm   1mph /  1.6km/h 82% 0.00in /  0mm 0 W/m2
23:29 76.3 °F /  24.6 °C 70.4 °F /  21.3 °C 30.00in /  1015.8hPa Calm   1mph /  1.6km/h 82% 0.00in /  0mm 0 W/m2
23:34 76.2 °F /  24.6 °C 70.3 °F /  21.3 °C 30.00in /  1015.8hPa Calm   1mph /  1.6km/h 82% 0.00in /  0mm 0 W/m2
23:39 76.1 °F /  24.5 °C 70.2 °F /  21.2 °C 30.00in /  1015.8hPa Calm     82% 0.00in /  0mm 0 W/m2
23:44 76 °F /  24.4 °C 70.1 °F /  21.2 °C 30.00in /  1015.8hPa Calm     82% 0.00in /  0mm 0 W/m2
23:49 76 °F /  24.4 °C 70.1 °F /  21.2 °C 30.00in /  1015.8hPa Calm   1mph /  1.6km/h 82% 0.00in /  0mm 0 W/m2
23:54 75.9 °F /  24.4 °C 70 °F /  21.1 °C 30.00in /  1015.8hPa Calm   1mph /  1.6km/h 82% 0.00in /  0mm 0 W/m2
23:59 75.8 °F /  24.3 °C 70.1 °F /  21.2 °C 30.00in /  1015.8hPa Calm   1mph /  1.6km/h 82.6% 0.00in /  0mm 0 W/m2
Hartford County Weather
Compliments of Weather Underground - 2 mb